createdAt,value
2022-10-12T00:01:00.280Z,40.63
2022-10-12T00:03:28.475Z,34.40
2022-10-12T00:06:04.758Z,44.45
2022-10-12T00:08:34.777Z,40.15
2022-10-12T00:11:03.504Z,35.50
2022-10-12T00:13:32.228Z,36.20
2022-10-12T00:16:04.181Z,37.67
2022-10-12T00:18:32.511Z,39.97
2022-10-12T00:21:04.798Z,39.60
2022-10-12T00:23:35.298Z,39.90
2022-10-12T00:26:04.943Z,38.75
2022-10-12T00:28:34.081Z,39.30
2022-10-12T00:31:03.353Z,35.58
2022-10-12T00:33:31.550Z,37.67
2022-10-12T00:35:59.834Z,37.35
2022-10-12T00:38:28.009Z,41.65
2022-10-12T00:40:57.587Z,36.45
2022-10-12T00:43:27.741Z,41.50
2022-10-12T00:45:56.176Z,32.88
2022-10-12T00:48:25.291Z,37.20
2022-10-12T00:50:54.133Z,39.50
2022-10-12T00:53:25.587Z,43.45
2022-10-12T00:56:00.891Z,46.00
2022-10-12T00:58:31.458Z,38.33
2022-10-12T01:01:02.601Z,39.90
2022-10-12T01:03:31.006Z,39.03
2022-10-12T01:05:59.865Z,39.03
2022-10-12T01:08:30.004Z,34.00
2022-10-12T01:10:59.615Z,37.60
2022-10-12T01:13:28.083Z,37.97
2022-10-12T01:16:02.315Z,43.10
2022-10-12T01:18:38.237Z,40.78
2022-10-12T01:21:18.597Z,37.78
2022-10-12T01:24:17.889Z,37.45
2022-10-12T01:27:04.389Z,42.47
2022-10-12T01:30:05.370Z,39.78
2022-10-12T01:32:41.125Z,44.85
2022-10-12T01:35:14.622Z,38.27
2022-10-12T01:37:50.353Z,40.55
2022-10-12T01:40:26.551Z,36.55
2022-10-12T01:42:56.640Z,36.10
2022-10-12T01:45:26.584Z,42.75
2022-10-12T01:47:56.369Z,39.40
2022-10-12T01:50:30.983Z,35.20
2022-10-12T01:53:08.421Z,35.63
2022-10-12T01:55:46.299Z,40.07
2022-10-12T01:58:34.453Z,39.10
2022-10-12T02:01:11.661Z,33.13
2022-10-12T02:03:47.245Z,38.25
2022-10-12T02:06:18.684Z,35.85
2022-10-12T02:08:54.293Z,33.90
2022-10-12T02:11:24.768Z,36.10
2022-10-12T02:13:57.089Z,41.47
2022-10-12T02:16:31.867Z,42.70
2022-10-12T02:19:01.843Z,41.40
2022-10-12T02:21:33.794Z,36.53
2022-10-12T02:24:06.373Z,44.20
2022-10-12T02:26:38.941Z,35.10
2022-10-12T02:29:10.848Z,35.30
2022-10-12T02:31:52.813Z,38.20
2022-10-12T02:34:26.107Z,31.50
2022-10-12T02:37:01.601Z,36.33
2022-10-12T02:39:33.116Z,34.10
2022-10-12T02:42:07.176Z,37.40
2022-10-12T02:44:40.121Z,44.17
2022-10-12T02:47:11.483Z,43.43
2022-10-12T02:49:41.163Z,42.33
2022-10-12T02:52:09.619Z,38.08
2022-10-12T02:54:38.015Z,52.57
2022-10-12T02:57:06.174Z,33.47
2022-10-12T02:59:34.701Z,36.47
2022-10-12T03:02:02.883Z,29.73
2022-10-12T03:04:32.473Z,40.67
2022-10-12T03:07:00.665Z,39.07
2022-10-12T03:09:29.087Z,39.27
2022-10-12T03:11:57.199Z,34.53
2022-10-12T03:14:26.970Z,34.63
2022-10-12T03:16:55.381Z,40.27
2022-10-12T03:19:23.661Z,37.03
2022-10-12T03:21:53.211Z,38.77
2022-10-12T03:24:21.457Z,36.67
2022-10-12T03:26:49.621Z,41.10
2022-10-12T03:29:17.885Z,42.33
2022-10-12T03:31:46.049Z,40.33
2022-10-12T03:34:14.240Z,39.60
2022-10-12T03:36:42.460Z,30.83
2022-10-12T03:39:12.519Z,36.70
2022-10-12T03:41:40.869Z,36.77
2022-10-12T03:44:09.018Z,43.97
2022-10-12T03:46:37.202Z,38.47
2022-10-12T03:49:05.586Z,41.22
2022-10-12T03:51:33.731Z,42.27
2022-10-12T03:54:02.047Z,39.15
2022-10-12T03:56:31.569Z,39.50
2022-10-12T03:58:59.800Z,42.30
2022-10-12T04:01:28.032Z,39.40
2022-10-12T04:03:56.200Z,46.80
2022-10-12T04:06:24.405Z,38.55
2022-10-12T04:08:52.665Z,44.35
2022-10-12T04:11:21.385Z,41.23
2022-10-12T04:13:50.952Z,41.60
2022-10-12T04:16:19.172Z,42.20
2022-10-12T04:18:47.412Z,40.33
2022-10-12T04:21:17.565Z,38.27
2022-10-12T04:23:45.789Z,36.23
2022-10-12T04:26:13.984Z,40.90
2022-10-12T04:28:42.239Z,44.00
2022-10-12T04:31:11.810Z,35.77
2022-10-12T04:33:39.984Z,46.03
2022-10-12T04:36:09.034Z,40.58
2022-10-12T04:38:37.273Z,45.35
2022-10-12T04:41:05.781Z,40.25
2022-10-12T04:43:33.993Z,43.65
2022-10-12T04:46:02.180Z,38.20
2022-10-12T04:48:31.814Z,36.27
2022-10-12T04:50:59.996Z,43.63
2022-10-12T04:53:28.315Z,40.93
2022-10-12T04:55:56.496Z,43.60
2022-10-12T04:58:24.764Z,40.87
2022-10-12T05:00:52.948Z,36.60
2022-10-12T05:03:21.190Z,40.97
2022-10-12T05:05:50.765Z,46.50
2022-10-12T05:08:19.074Z,44.35
2022-10-12T05:10:47.362Z,41.83
2022-10-12T05:13:15.922Z,42.50
2022-10-12T05:15:44.950Z,35.27
2022-10-12T05:18:13.234Z,35.85
2022-10-12T05:20:41.365Z,38.58
2022-10-12T05:23:11.859Z,45.65
2022-10-12T05:25:40.006Z,42.20
2022-10-12T05:28:08.690Z,34.90
2022-10-12T05:30:37.052Z,43.53
2022-10-12T05:33:05.296Z,35.55
2022-10-12T05:35:33.412Z,39.97
2022-10-12T05:38:01.716Z,37.58
2022-10-12T05:40:32.886Z,44.27
2022-10-12T05:43:01.127Z,45.77
2022-10-12T05:45:29.345Z,37.17
2022-10-12T05:47:57.609Z,37.80
2022-10-12T05:50:25.722Z,37.58
2022-10-12T05:52:53.971Z,38.30
2022-10-12T05:55:22.126Z,37.97
2022-10-12T05:57:52.078Z,38.37
2022-10-12T06:00:21.715Z,41.30
2022-10-12T06:02:49.958Z,47.25
2022-10-12T06:05:18.259Z,44.85
2022-10-12T06:07:46.553Z,42.83
2022-10-12T06:10:14.706Z,50.93
2022-10-12T06:12:43.366Z,47.38
2022-10-12T06:15:13.049Z,43.17
2022-10-12T06:17:41.230Z,52.63
2022-10-12T06:20:10.413Z,42.50
2022-10-12T06:22:39.654Z,46.17
2022-10-12T06:25:11.264Z,37.80
2022-10-12T06:27:40.300Z,44.45
2022-10-12T06:37:01.656Z,39.43
2022-10-12T06:39:32.596Z,41.60
2022-10-12T06:42:02.727Z,37.87
2022-10-12T06:44:45.074Z,39.47
2022-10-12T06:47:14.129Z,34.72
2022-10-12T06:49:43.332Z,42.00
2022-10-12T06:52:13.493Z,41.10
2022-10-12T06:54:45.937Z,44.38
2022-10-12T06:57:21.956Z,41.78
2022-10-12T06:59:52.401Z,42.60
2022-10-12T07:02:21.911Z,37.17
2022-10-12T07:07:42.316Z,43.63
2022-10-12T07:10:21.767Z,45.20
2022-10-12T07:12:51.639Z,44.35
2022-10-12T07:15:20.858Z,43.70
2022-10-12T07:17:49.657Z,39.88
2022-10-12T07:20:18.955Z,33.90
2022-10-12T07:22:57.061Z,44.05
2022-10-12T07:25:28.104Z,43.35
2022-10-12T07:28:15.830Z,40.55
2022-10-12T07:30:47.056Z,37.22
2022-10-12T07:33:16.503Z,40.28
2022-10-12T07:38:30.323Z,37.92
2022-10-12T07:41:01.466Z,41.00
2022-10-12T07:43:33.991Z,38.13
2022-10-12T07:46:05.437Z,42.25
2022-10-12T07:48:38.111Z,40.38
2022-10-12T07:51:33.019Z,37.35
2022-10-12T07:54:05.841Z,37.42
2022-10-12T07:56:34.513Z,35.50
2022-10-12T07:59:03.291Z,42.67
2022-10-12T08:01:34.997Z,43.17
2022-10-12T08:04:05.482Z,41.38
2022-10-12T08:06:38.244Z,40.13
2022-10-12T08:09:10.243Z,41.47
2022-10-12T08:11:41.243Z,37.22
2022-10-12T08:14:15.710Z,40.67
2022-10-12T08:16:45.128Z,38.05
2022-10-12T08:19:16.451Z,29.73
2022-10-12T08:21:45.360Z,37.65
2022-10-12T08:24:15.213Z,39.95
2022-10-12T08:26:43.870Z,38.92
2022-10-12T08:29:13.627Z,33.50
2022-10-12T08:31:44.101Z,30.85
2022-10-12T08:34:12.907Z,31.52
2022-10-12T08:36:44.134Z,30.23
2022-10-12T08:39:21.043Z,27.17
2022-10-12T08:42:00.715Z,23.00
2022-10-12T08:44:59.335Z,28.98
2022-10-12T08:47:41.904Z,24.00
2022-10-12T08:50:19.651Z,26.02
2022-10-12T08:52:55.094Z,26.08
2022-10-12T08:55:34.771Z,28.92
2022-10-12T08:58:04.141Z,28.73
2022-10-12T09:00:41.044Z,27.60
2022-10-12T09:03:29.207Z,31.20
2022-10-12T09:06:06.922Z,25.50
2022-10-12T09:08:51.238Z,27.45
2022-10-12T09:11:39.920Z,27.85
2022-10-12T09:14:12.522Z,26.85
2022-10-12T09:16:45.422Z,29.45
2022-10-12T09:19:19.843Z,21.15
2022-10-12T09:21:50.720Z,28.58
2022-10-12T09:24:23.878Z,32.17
2022-10-12T09:26:58.926Z,16.65
2022-10-12T09:29:29.866Z,25.35
2022-10-12T09:32:17.937Z,30.67
2022-10-12T09:34:49.666Z,22.92
2022-10-12T09:37:24.844Z,34.80
2022-10-12T09:39:56.517Z,54.78
2022-10-12T09:42:29.209Z,58.88
2022-10-12T09:45:02.727Z,40.60
2022-10-12T09:47:33.599Z,20.42
2022-10-12T09:50:08.312Z,72.45
2022-10-12T09:52:52.970Z,35.47
2022-10-12T09:58:00.136Z,16.52
2022-10-12T10:00:30.754Z,14.18
2022-10-12T10:02:59.686Z,16.40
2022-10-12T10:05:29.752Z,13.88
2022-10-12T10:08:18.854Z,15.73
2022-10-12T10:10:56.242Z,10.88
2022-10-12T10:13:46.182Z,14.07
2022-10-12T10:16:23.145Z,17.77
2022-10-12T10:19:02.016Z,13.50
2022-10-12T10:21:39.655Z,15.43
2022-10-12T10:24:23.794Z,11.75
2022-10-12T10:27:00.491Z,12.60
2022-10-12T10:29:44.260Z,14.75
2022-10-12T10:32:35.670Z,10.20
2022-10-12T10:35:19.168Z,11.00
2022-10-12T10:37:54.469Z,19.42
2022-10-12T10:40:29.557Z,12.35
2022-10-12T10:43:05.723Z,14.43
2022-10-12T10:45:53.388Z,11.80
2022-10-12T10:48:25.978Z,9.30
2022-10-12T10:51:00.349Z,12.25
2022-10-12T10:53:33.252Z,10.57
2022-10-12T10:56:08.611Z,13.40
2022-10-12T10:58:42.752Z,9.82
2022-10-12T11:01:20.894Z,15.32
2022-10-12T11:03:58.565Z,11.77
2022-10-12T11:06:40.671Z,10.80
2022-10-12T11:09:21.377Z,12.00
2022-10-12T11:12:08.826Z,12.30
2022-10-12T11:15:05.385Z,13.82
2022-10-12T11:17:47.134Z,6.95
2022-10-12T11:20:35.953Z,11.75
2022-10-12T11:23:17.156Z,15.43
2022-10-12T11:25:56.133Z,14.30
2022-10-12T11:28:29.206Z,8.27
2022-10-12T11:31:01.961Z,9.48
2022-10-12T11:33:43.722Z,13.55
2022-10-12T11:36:26.050Z,12.45
2022-10-12T11:39:07.339Z,10.18
2022-10-12T11:42:09.673Z,12.30
2022-10-12T11:44:49.947Z,13.73
2022-10-12T11:47:31.442Z,13.45
2022-10-12T11:50:10.225Z,11.73
2022-10-12T11:52:56.434Z,14.18
2022-10-12T11:55:40.918Z,13.85
2022-10-12T11:58:16.723Z,13.32
2022-10-12T12:01:09.821Z,11.05
2022-10-12T12:04:36.837Z,12.45
2022-10-12T12:07:57.033Z,12.30
2022-10-12T12:10:46.188Z,9.07
2022-10-12T12:13:27.343Z,15.23
2022-10-12T12:16:35.234Z,9.88
2022-10-12T12:19:35.513Z,14.50
2022-10-12T12:22:32.810Z,13.68
2022-10-12T12:25:23.793Z,10.50
2022-10-12T12:27:57.480Z,8.60
2022-10-12T12:30:37.055Z,12.10
2022-10-12T12:33:25.223Z,10.77
2022-10-12T12:35:56.807Z,7.00
2022-10-12T12:38:33.303Z,10.85
2022-10-12T12:41:10.032Z,11.05
2022-10-12T12:44:04.815Z,8.68
2022-10-12T12:46:52.229Z,7.45
2022-10-12T12:49:30.917Z,11.00
2022-10-12T12:52:00.275Z,13.27
2022-10-12T12:54:31.919Z,8.88
2022-10-12T12:57:36.665Z,7.60
2022-10-12T13:00:17.375Z,11.23
2022-10-12T13:03:19.729Z,10.35
2022-10-12T13:06:13.172Z,7.50
2022-10-12T13:09:04.147Z,8.65
2022-10-12T13:11:56.842Z,12.40
2022-10-12T13:18:23.105Z,7.25
2022-10-12T13:21:00.214Z,11.73
2022-10-12T13:23:30.933Z,6.97
2022-10-12T13:26:04.337Z,11.60
2022-10-12T13:28:40.675Z,6.82
2022-10-12T13:31:15.613Z,10.55
2022-10-12T13:33:52.041Z,11.25
2022-10-12T13:36:25.107Z,12.73
2022-10-12T13:39:24.118Z,8.65
2022-10-12T13:41:58.342Z,9.20
2022-10-12T13:44:33.539Z,13.27
2022-10-12T13:47:09.395Z,6.68
2022-10-12T13:49:44.945Z,8.40
2022-10-12T13:52:25.366Z,6.72
2022-10-12T13:55:00.615Z,5.85
2022-10-12T13:57:35.589Z,8.77
2022-10-12T14:00:21.375Z,11.07
2022-10-12T14:02:58.376Z,9.77
2022-10-12T14:05:40.698Z,7.35
2022-10-12T14:08:16.289Z,9.20
2022-10-12T14:10:45.513Z,8.20
2022-10-12T14:13:17.112Z,10.00
2022-10-12T14:16:07.382Z,13.48
2022-10-12T14:18:45.335Z,10.82
2022-10-12T14:21:22.839Z,20.50
2022-10-12T14:26:42.541Z,8.32
2022-10-12T14:29:45.636Z,7.10
2022-10-12T14:32:47.029Z,7.35
2022-10-12T14:35:25.184Z,10.98
2022-10-12T14:37:59.284Z,8.25
2022-10-12T14:40:34.648Z,11.48
2022-10-12T14:43:09.595Z,7.45
2022-10-12T14:45:39.678Z,9.65
2022-10-12T14:48:15.023Z,6.78
2022-10-12T14:50:47.885Z,10.18
2022-10-12T14:53:18.232Z,10.88
2022-10-12T14:55:52.280Z,14.20
2022-10-12T14:58:23.197Z,12.13
2022-10-12T15:00:52.757Z,8.05
2022-10-12T15:03:21.254Z,12.30
2022-10-12T15:05:51.256Z,5.60
2022-10-12T15:08:22.254Z,6.22
2022-10-12T15:10:52.424Z,10.32
2022-10-12T15:13:21.426Z,7.22
2022-10-12T15:15:52.654Z,5.15
2022-10-12T15:18:21.331Z,9.95
2022-10-12T15:20:52.148Z,8.30
2022-10-12T15:23:21.635Z,11.27
2022-10-12T15:25:54.544Z,10.68
2022-10-12T15:28:30.659Z,7.95
2022-10-12T15:34:00.950Z,9.70
2022-10-12T15:36:33.285Z,11.20
2022-10-12T15:39:02.920Z,12.10
2022-10-12T15:41:46.056Z,12.23
2022-10-12T15:44:26.096Z,13.02
2022-10-12T15:46:56.572Z,11.90
2022-10-12T15:49:37.656Z,16.15
2022-10-12T15:52:20.589Z,11.13
2022-10-12T15:54:50.362Z,8.75
2022-10-12T15:57:33.199Z,9.43
2022-10-12T16:00:05.862Z,11.02
2022-10-12T16:02:47.714Z,8.82
2022-10-12T16:05:20.127Z,11.95
2022-10-12T16:07:59.042Z,8.98
2022-10-12T16:10:34.734Z,14.98
2022-10-12T16:13:04.491Z,10.10
2022-10-12T16:15:35.697Z,11.55
2022-10-12T16:18:07.078Z,11.43
2022-10-12T16:20:39.682Z,9.55
2022-10-12T16:23:17.103Z,20.48
2022-10-12T16:25:46.226Z,7.93
2022-10-12T16:28:14.920Z,17.50
2022-10-12T16:30:44.875Z,11.63
2022-10-12T16:33:15.229Z,8.13
2022-10-12T16:35:44.379Z,13.30
2022-10-12T16:38:16.217Z,14.93
2022-10-12T16:40:44.817Z,10.35
2022-10-12T16:43:14.416Z,13.55
2022-10-12T16:45:58.055Z,10.45
2022-10-12T16:48:29.253Z,14.95
2022-10-12T16:50:59.493Z,13.73
2022-10-12T16:53:34.374Z,12.55
2022-10-12T16:56:04.833Z,15.48
2022-10-12T16:58:34.338Z,14.10
2022-10-12T17:04:08.239Z,10.55
2022-10-12T17:06:38.856Z,15.85
2022-10-12T17:09:09.187Z,12.07
2022-10-12T17:11:39.857Z,14.80
2022-10-12T17:14:12.973Z,11.70
2022-10-12T17:16:52.564Z,17.95
2022-10-12T17:19:23.649Z,18.17
2022-10-12T17:21:54.116Z,9.82
2022-10-12T17:24:31.363Z,10.95
2022-10-12T17:27:02.302Z,12.52
2022-10-12T17:29:37.957Z,16.05
2022-10-12T17:35:01.066Z,12.20
2022-10-12T17:40:31.875Z,13.60
2022-10-12T17:45:53.584Z,15.50
2022-10-12T17:48:22.655Z,12.48
2022-10-12T17:50:51.914Z,13.18
2022-10-12T17:53:24.354Z,19.05
2022-10-12T17:55:59.139Z,10.07
2022-10-12T17:58:30.507Z,17.63
2022-10-12T18:01:11.918Z,17.42
2022-10-12T18:04:06.327Z,13.75
2022-10-12T18:06:36.595Z,17.80
2022-10-12T18:09:09.590Z,14.70
2022-10-12T18:11:58.344Z,12.40
2022-10-12T18:14:41.559Z,14.65
2022-10-12T18:17:13.108Z,13.35
2022-10-12T18:19:43.854Z,20.38
2022-10-12T18:22:19.894Z,17.20
2022-10-12T18:24:49.789Z,21.02
2022-10-12T18:27:24.256Z,17.23
2022-10-12T18:29:53.239Z,17.70
2022-10-12T18:32:33.827Z,19.00
2022-10-12T18:37:51.320Z,15.82
2022-10-12T18:40:20.891Z,18.33
2022-10-12T18:42:57.177Z,20.25
2022-10-12T18:45:30.773Z,19.27
2022-10-12T18:48:07.504Z,16.45
2022-10-12T18:50:38.243Z,17.45
2022-10-12T18:53:08.890Z,19.30
2022-10-12T18:55:48.715Z,23.02
2022-10-12T18:58:27.697Z,14.70
2022-10-12T19:01:01.509Z,17.38
2022-10-12T19:03:33.642Z,17.35
2022-10-12T19:06:08.918Z,17.23
2022-10-12T19:08:41.065Z,15.23
2022-10-12T19:14:13.760Z,14.00
2022-10-12T19:16:46.052Z,16.83
2022-10-12T19:19:21.617Z,18.08
2022-10-12T19:21:52.949Z,14.30
2022-10-12T19:24:22.902Z,18.42
2022-10-12T19:26:53.703Z,17.05
2022-10-12T19:29:24.550Z,16.90
2022-10-12T19:34:55.490Z,16.58
2022-10-12T19:37:26.195Z,20.20
2022-10-12T19:39:58.038Z,16.70
2022-10-12T19:42:32.484Z,17.80
2022-10-12T19:45:06.475Z,25.45
2022-10-12T19:47:36.326Z,18.73
2022-10-12T19:50:06.846Z,21.02
2022-10-12T19:52:38.339Z,21.33
2022-10-12T19:55:13.571Z,16.40
2022-10-12T19:57:43.551Z,21.65
2022-10-12T20:00:23.997Z,23.60
2022-10-12T20:02:53.313Z,25.52
2022-10-12T20:05:24.335Z,23.10
2022-10-12T20:07:53.209Z,19.05
2022-10-12T20:10:25.751Z,16.90
2022-10-12T20:12:55.992Z,24.63
2022-10-12T20:15:55.785Z,21.67
2022-10-12T20:18:28.736Z,16.67
2022-10-12T20:21:02.081Z,18.85
2022-10-12T20:23:33.054Z,18.38
2022-10-12T20:26:06.513Z,24.63
2022-10-12T20:28:37.036Z,19.00
2022-10-12T20:31:11.557Z,18.85
2022-10-12T20:33:46.073Z,22.38
2022-10-12T20:36:22.749Z,20.15
2022-10-12T20:38:52.753Z,27.33
2022-10-12T20:41:25.571Z,19.00
2022-10-12T20:43:56.429Z,20.77
2022-10-12T20:46:27.642Z,16.55
2022-10-12T20:49:00.843Z,20.23
2022-10-12T20:51:31.341Z,21.83
2022-10-12T20:54:05.974Z,24.42
2022-10-12T20:56:35.421Z,19.80
2022-10-12T20:59:04.795Z,21.58
2022-10-12T21:01:38.975Z,19.25
2022-10-12T21:04:07.639Z,19.60
2022-10-12T21:06:40.725Z,18.15
2022-10-12T21:09:10.296Z,23.77
2022-10-12T21:11:39.590Z,23.77
2022-10-12T21:14:08.364Z,25.77
2022-10-12T21:16:38.027Z,27.55
2022-10-12T21:19:06.811Z,21.15
2022-10-12T21:21:35.597Z,28.75
2022-10-12T21:24:06.708Z,21.73
2022-10-12T21:26:36.518Z,29.98
2022-10-12T21:29:05.705Z,24.33
2022-10-12T21:31:35.034Z,28.88
2022-10-12T21:34:08.568Z,25.70
2022-10-12T21:36:40.406Z,23.75
2022-10-12T21:39:12.268Z,26.33
2022-10-12T21:41:41.191Z,28.02
2022-10-12T21:44:11.149Z,29.25
2022-10-12T21:46:42.664Z,25.67
2022-10-12T21:49:12.779Z,27.73
2022-10-12T21:51:45.398Z,22.77
2022-10-12T21:54:14.380Z,22.15
2022-10-12T21:56:43.413Z,27.02
2022-10-12T21:59:13.429Z,25.80
2022-10-12T22:01:43.506Z,25.80
2022-10-12T22:04:18.829Z,30.65
2022-10-12T22:06:47.316Z,33.00
2022-10-12T22:09:19.403Z,29.40
2022-10-12T22:11:49.483Z,25.55
2022-10-12T22:14:20.289Z,25.55
2022-10-12T22:16:49.548Z,30.33
2022-10-12T22:19:19.921Z,31.27
2022-10-12T22:21:49.305Z,32.53
2022-10-12T22:24:17.875Z,26.13
2022-10-12T22:26:46.566Z,22.35
2022-10-12T22:29:14.886Z,24.52
2022-10-12T22:31:45.712Z,27.77
2022-10-12T22:34:14.898Z,23.58
2022-10-12T22:36:47.496Z,29.15
2022-10-12T22:39:22.423Z,29.98
2022-10-12T22:41:52.096Z,29.13
2022-10-12T22:44:21.725Z,33.50
2022-10-12T22:46:56.255Z,32.90
2022-10-12T22:49:24.740Z,25.52
2022-10-12T22:51:55.818Z,31.30
2022-10-12T22:54:27.468Z,25.88
2022-10-12T22:56:55.890Z,35.17
2022-10-12T22:59:25.345Z,27.48
2022-10-12T23:01:57.364Z,29.27
2022-10-12T23:04:26.715Z,22.17
2022-10-12T23:06:56.697Z,25.17
2022-10-12T23:09:29.163Z,31.58
2022-10-12T23:12:01.493Z,29.83
2022-10-12T23:14:31.555Z,26.13
2022-10-12T23:17:00.119Z,31.70
2022-10-12T23:19:28.617Z,23.65
2022-10-12T23:21:58.691Z,27.20
2022-10-12T23:24:27.436Z,27.45
2022-10-12T23:26:56.916Z,24.60
2022-10-12T23:29:25.423Z,23.23
2022-10-12T23:31:54.590Z,26.20
2022-10-12T23:34:23.129Z,26.83
2022-10-12T23:36:52.536Z,33.67
2022-10-12T23:39:23.631Z,23.42
2022-10-12T23:41:52.174Z,30.30
2022-10-12T23:44:20.658Z,25.85
2022-10-12T23:46:49.017Z,25.38
2022-10-12T23:49:18.321Z,30.25
2022-10-12T23:51:52.756Z,26.25
2022-10-12T23:54:22.740Z,25.98
2022-10-12T23:56:54.234Z,25.85
2022-10-12T23:59:22.896Z,26.48
